createdAt,value
2022-10-14T00:00:54.586Z,221.75
2022-10-14T00:01:49.628Z,222.35
2022-10-14T00:02:44.725Z,223.26
2022-10-14T00:03:39.732Z,223.41
2022-10-14T00:04:36.436Z,224.79
2022-10-14T00:05:31.507Z,225.41
2022-10-14T00:06:26.546Z,225.56
2022-10-14T00:07:21.859Z,226.81
2022-10-14T00:08:16.755Z,227.28
2022-10-14T00:09:11.824Z,226.50
2022-10-14T00:10:06.918Z,224.33
2022-10-14T00:11:02.042Z,223.11
2022-10-14T00:11:57.167Z,223.41
2022-10-14T00:12:52.229Z,223.87
2022-10-14T00:13:47.316Z,225.41
2022-10-14T00:14:42.432Z,226.18
2022-10-14T00:15:37.524Z,226.18
2022-10-14T00:16:32.612Z,227.28
2022-10-14T00:17:27.842Z,228.55
2022-10-14T00:18:23.637Z,226.03
2022-10-14T00:19:18.882Z,226.34
2022-10-14T00:20:14.633Z,225.56
2022-10-14T00:21:09.828Z,224.95
2022-10-14T00:22:05.348Z,225.56
2022-10-14T00:23:00.986Z,225.25
2022-10-14T00:23:56.217Z,224.02
2022-10-14T00:24:51.428Z,224.79
2022-10-14T00:25:48.006Z,224.33
2022-10-14T00:26:43.242Z,223.72
2022-10-14T00:27:39.011Z,223.41
2022-10-14T00:28:34.287Z,223.57
2022-10-14T00:29:29.479Z,224.64
2022-10-14T00:30:25.440Z,223.41
2022-10-14T00:31:20.514Z,221.45
2022-10-14T00:32:16.418Z,219.23
2022-10-14T00:33:11.509Z,219.67
2022-10-14T00:34:06.991Z,218.36
2022-10-14T00:35:02.783Z,218.36
2022-10-14T00:35:58.015Z,218.94
2022-10-14T00:36:53.345Z,218.65
2022-10-14T00:37:49.536Z,217.78
2022-10-14T00:38:44.876Z,217.78
2022-10-14T00:39:40.666Z,217.35
2022-10-14T00:40:35.998Z,219.53
2022-10-14T00:41:31.345Z,218.07
2022-10-14T00:42:27.006Z,219.09
2022-10-14T00:43:22.354Z,219.23
2022-10-14T00:44:18.123Z,217.35
2022-10-14T00:45:13.325Z,217.20
2022-10-14T00:46:08.827Z,216.63
2022-10-14T00:47:04.473Z,214.93
2022-10-14T00:47:59.682Z,215.49
2022-10-14T00:48:54.910Z,215.49
2022-10-14T00:49:51.211Z,214.79
2022-10-14T00:50:46.610Z,215.35
2022-10-14T00:51:42.380Z,215.77
2022-10-14T00:52:37.576Z,216.20
2022-10-14T00:53:32.801Z,217.63
2022-10-14T00:54:28.722Z,218.65
2022-10-14T00:55:23.828Z,218.36
2022-10-14T00:56:19.602Z,220.26
2022-10-14T00:57:14.803Z,222.81
2022-10-14T00:58:10.183Z,223.41
2022-10-14T00:59:05.951Z,226.34
2022-10-14T01:00:01.214Z,225.72
2022-10-14T01:00:56.454Z,225.25
2022-10-14T01:01:51.671Z,223.87
2022-10-14T01:02:46.904Z,222.65
2022-10-14T01:03:42.682Z,222.50
2022-10-14T01:04:38.056Z,222.20
2022-10-14T01:05:33.685Z,221.15
2022-10-14T01:06:28.879Z,221.30
2022-10-14T01:07:24.405Z,221.30
2022-10-14T01:08:20.117Z,221.01
2022-10-14T01:09:15.387Z,221.15
2022-10-14T01:10:10.586Z,222.20
2022-10-14T01:11:07.037Z,221.30
2022-10-14T01:12:26.843Z,220.56
2022-10-14T01:12:59.195Z,221.30
2022-10-14T01:13:53.472Z,222.81
2022-10-14T01:14:48.686Z,221.90
2022-10-14T01:15:44.482Z,220.41
2022-10-14T01:16:39.823Z,222.81
2022-10-14T01:17:35.028Z,224.95
2022-10-14T01:18:30.246Z,225.25
2022-10-14T01:19:25.441Z,226.34
2022-10-14T01:20:20.554Z,225.25
2022-10-14T01:21:15.622Z,227.12
2022-10-14T01:22:10.712Z,228.07
2022-10-14T01:23:05.832Z,227.28
2022-10-14T01:24:00.912Z,228.23
2022-10-14T01:24:56.000Z,227.12
2022-10-14T01:25:51.069Z,224.79
2022-10-14T01:26:46.129Z,225.72
2022-10-14T01:27:41.308Z,226.97
2022-10-14T01:28:36.291Z,228.07
2022-10-14T01:29:32.872Z,225.72
2022-10-14T01:30:28.092Z,226.18
2022-10-14T01:31:23.440Z,225.25
2022-10-14T01:32:18.999Z,225.56
2022-10-14T01:33:13.863Z,222.50
2022-10-14T01:34:08.936Z,222.20
2022-10-14T01:35:04.060Z,221.90
2022-10-14T01:35:59.128Z,221.60
2022-10-14T01:36:54.220Z,217.63
2022-10-14T01:37:49.337Z,217.92
2022-10-14T01:38:44.438Z,216.34
2022-10-14T01:39:39.514Z,214.79
2022-10-14T01:40:34.586Z,217.35
2022-10-14T01:41:29.664Z,216.91
2022-10-14T01:42:24.900Z,217.78
2022-10-14T01:43:19.848Z,218.21
2022-10-14T01:44:14.903Z,219.23
2022-10-14T01:45:10.137Z,221.30
2022-10-14T01:46:05.343Z,220.12
2022-10-14T01:47:00.671Z,221.15
2022-10-14T01:47:55.766Z,221.90
2022-10-14T01:48:51.227Z,222.65
2022-10-14T01:49:46.321Z,222.65
2022-10-14T01:50:41.641Z,224.33
2022-10-14T01:51:36.851Z,223.41
2022-10-14T01:52:32.112Z,225.87
2022-10-14T01:53:27.300Z,226.03
2022-10-14T01:54:22.493Z,227.76
2022-10-14T01:55:17.724Z,229.03
2022-10-14T01:56:13.078Z,228.87
2022-10-14T01:57:08.424Z,230.96
2022-10-14T01:58:03.521Z,233.59
2022-10-14T01:58:58.757Z,236.11
2022-10-14T01:59:53.979Z,239.21
2022-10-14T02:00:49.183Z,242.57
2022-10-14T02:01:44.457Z,243.65
2022-10-14T02:02:39.706Z,243.11
2022-10-14T02:03:34.888Z,244.20
2022-10-14T02:04:30.228Z,245.48
2022-10-14T02:05:25.313Z,249.39
2022-10-14T02:06:20.517Z,251.30
2022-10-14T02:07:15.726Z,252.27
2022-10-14T02:08:11.027Z,253.83
2022-10-14T02:09:06.368Z,252.27
2022-10-14T02:10:01.458Z,250.92
2022-10-14T02:11:01.784Z,250.92
2022-10-14T02:11:53.025Z,250.15
2022-10-14T02:12:47.156Z,247.51
2022-10-14T02:13:42.254Z,246.40
2022-10-14T02:14:37.347Z,246.40
2022-10-14T02:15:35.703Z,246.40
2022-10-14T02:16:30.899Z,245.66
2022-10-14T02:17:26.112Z,245.29
2022-10-14T02:18:21.346Z,244.02
2022-10-14T02:19:16.555Z,243.29
2022-10-14T02:20:11.773Z,242.75
2022-10-14T02:21:06.983Z,243.47
2022-10-14T02:22:02.322Z,242.21
2022-10-14T02:22:57.543Z,239.91
2022-10-14T02:23:52.882Z,239.21
2022-10-14T02:24:47.971Z,238.00
2022-10-14T02:25:43.034Z,237.31
2022-10-14T02:26:38.099Z,237.14
2022-10-14T02:27:33.312Z,238.52
2022-10-14T02:28:28.491Z,238.86
2022-10-14T02:29:23.464Z,238.00
2022-10-14T02:30:18.565Z,236.62
2022-10-14T02:31:13.664Z,231.45
2022-10-14T02:32:08.752Z,229.35
2022-10-14T02:33:03.809Z,226.50
2022-10-14T02:33:58.906Z,226.97
2022-10-14T02:34:54.117Z,229.83
2022-10-14T02:35:49.208Z,229.67
2022-10-14T02:36:44.417Z,229.35
2022-10-14T02:37:39.527Z,230.64
2022-10-14T02:38:34.637Z,232.60
2022-10-14T02:39:29.690Z,232.27
2022-10-14T02:40:24.755Z,233.93
2022-10-14T02:41:19.868Z,235.10
2022-10-14T02:42:14.945Z,236.80
2022-10-14T02:43:09.933Z,236.97
2022-10-14T02:44:05.027Z,238.34
2022-10-14T02:45:00.034Z,238.00
2022-10-14T02:45:56.738Z,240.09
2022-10-14T02:46:51.823Z,240.44
2022-10-14T02:47:46.813Z,241.32
2022-10-14T02:48:41.913Z,246.03
2022-10-14T02:49:36.921Z,244.02
2022-10-14T02:50:32.000Z,243.29
2022-10-14T02:51:27.092Z,244.38
2022-10-14T02:52:22.371Z,245.48
2022-10-14T02:53:17.133Z,243.83
2022-10-14T02:54:12.332Z,244.74
2022-10-14T02:55:07.292Z,244.74
2022-10-14T02:56:02.394Z,244.74
2022-10-14T02:56:58.032Z,242.75
2022-10-14T02:57:53.230Z,241.50
2022-10-14T02:58:48.488Z,240.97
2022-10-14T02:59:44.290Z,240.62
2022-10-14T03:00:39.544Z,240.26
2022-10-14T03:01:37.821Z,240.62
2022-10-14T03:02:30.520Z,239.56
2022-10-14T03:03:25.906Z,238.34
2022-10-14T03:04:21.266Z,237.31
2022-10-14T03:05:17.077Z,236.45
2022-10-14T03:06:12.305Z,237.48
2022-10-14T03:07:07.680Z,235.94
2022-10-14T03:08:03.356Z,234.93
2022-10-14T03:08:58.580Z,233.93
2022-10-14T03:09:53.846Z,233.76
2022-10-14T03:10:50.155Z,233.26
2022-10-14T03:11:45.418Z,231.45
2022-10-14T03:12:41.189Z,227.28
2022-10-14T03:13:36.387Z,227.91
2022-10-14T03:14:31.624Z,228.71
2022-10-14T03:15:27.406Z,230.64
2022-10-14T03:16:22.663Z,231.78
2022-10-14T03:17:18.433Z,231.45
2022-10-14T03:18:13.649Z,231.94
2022-10-14T03:19:09.032Z,232.60
2022-10-14T03:20:04.840Z,235.60
2022-10-14T03:21:00.055Z,233.10
2022-10-14T03:21:55.253Z,232.10
2022-10-14T03:22:51.742Z,232.76
2022-10-14T03:23:46.959Z,233.43
2022-10-14T03:24:42.754Z,234.43
2022-10-14T03:25:38.001Z,235.77
2022-10-14T03:26:33.217Z,234.76
2022-10-14T03:27:29.025Z,231.29
2022-10-14T03:28:24.312Z,229.83
2022-10-14T03:29:20.201Z,229.67
2022-10-14T03:30:15.549Z,227.28
2022-10-14T03:31:10.780Z,226.03
2022-10-14T03:32:06.578Z,226.03
2022-10-14T03:33:01.943Z,225.56
2022-10-14T03:33:57.277Z,225.41
2022-10-14T03:34:53.504Z,224.18
2022-10-14T03:35:48.767Z,204.73
2022-10-14T03:36:44.569Z,206.80
2022-10-14T03:37:39.775Z,197.82
2022-10-14T03:38:35.276Z,206.67
2022-10-14T03:39:30.944Z,214.93
2022-10-14T03:40:26.326Z,222.81
2022-10-14T03:41:22.128Z,229.35
2022-10-14T03:42:17.336Z,233.59
2022-10-14T03:43:12.686Z,236.97
2022-10-14T03:44:08.055Z,240.09
2022-10-14T03:45:03.287Z,243.29
2022-10-14T03:45:59.082Z,244.38
2022-10-14T03:46:54.334Z,246.58
2022-10-14T03:47:50.244Z,245.66
2022-10-14T03:48:45.348Z,245.11
2022-10-14T03:49:40.842Z,246.21
2022-10-14T03:50:36.653Z,247.14
2022-10-14T03:51:31.881Z,248.07
2022-10-14T03:52:27.233Z,249.77
2022-10-14T03:53:23.443Z,251.11
2022-10-14T03:54:18.686Z,250.73
2022-10-14T03:55:14.514Z,250.73
2022-10-14T03:56:09.731Z,252.85
2022-10-14T03:57:05.224Z,252.46
2022-10-14T03:58:00.918Z,251.88
2022-10-14T03:58:56.171Z,252.46
2022-10-14T03:59:51.404Z,249.77
2022-10-14T04:00:46.637Z,250.92
2022-10-14T04:01:42.063Z,254.42
2022-10-14T04:02:37.077Z,254.03
2022-10-14T04:03:32.067Z,253.05
2022-10-14T04:04:27.181Z,253.83
2022-10-14T04:05:22.415Z,255.41
2022-10-14T04:06:17.374Z,256.01
2022-10-14T04:07:12.477Z,258.63
2022-10-14T04:08:07.576Z,259.66
2022-10-14T04:09:02.677Z,262.36
2022-10-14T04:09:57.796Z,261.31
2022-10-14T04:10:52.879Z,265.33
2022-10-14T04:11:47.985Z,267.27
2022-10-14T04:12:43.332Z,267.93
2022-10-14T04:13:38.423Z,264.90
2022-10-14T04:14:33.484Z,265.76
2022-10-14T04:15:28.618Z,266.62
2022-10-14T04:16:23.582Z,269.24
2022-10-14T04:17:18.705Z,265.54
2022-10-14T04:18:13.793Z,262.78
2022-10-14T04:19:08.896Z,260.48
2022-10-14T04:20:04.097Z,258.43
2022-10-14T04:20:59.246Z,252.85
2022-10-14T04:21:54.196Z,254.03
2022-10-14T04:22:49.276Z,256.21
2022-10-14T04:23:44.523Z,256.21
2022-10-14T04:24:44.621Z,256.01
2022-10-14T04:25:39.961Z,258.43
2022-10-14T04:26:35.217Z,262.15
2022-10-14T04:27:30.562Z,262.78
2022-10-14T04:28:26.106Z,262.78
2022-10-14T04:29:21.339Z,263.62
2022-10-14T04:30:16.553Z,264.26
2022-10-14T04:31:12.018Z,262.78
2022-10-14T04:32:07.123Z,261.10
2022-10-14T04:33:02.440Z,261.73
2022-10-14T04:33:57.709Z,261.94
2022-10-14T04:34:52.929Z,260.48
2022-10-14T04:35:48.273Z,261.52
2022-10-14T04:36:43.502Z,258.43
2022-10-14T04:37:38.743Z,260.90
2022-10-14T04:38:33.966Z,263.41
2022-10-14T04:39:29.351Z,265.11
2022-10-14T04:40:24.714Z,265.11
2022-10-14T04:41:20.055Z,268.14
2022-10-14T04:42:15.207Z,267.93
2022-10-14T04:43:10.423Z,269.02
2022-10-14T04:44:05.665Z,265.54
2022-10-14T04:45:00.918Z,262.78
2022-10-14T04:45:56.130Z,261.31
2022-10-14T04:46:51.355Z,260.07
2022-10-14T04:47:48.793Z,259.86
2022-10-14T04:48:41.833Z,261.94
2022-10-14T04:49:37.053Z,262.36
2022-10-14T04:50:32.401Z,263.62
2022-10-14T04:51:27.752Z,263.62
2022-10-14T04:52:23.290Z,266.19
2022-10-14T04:53:21.934Z,264.05
2022-10-14T04:54:13.537Z,257.62
2022-10-14T04:55:08.605Z,254.62
2022-10-14T04:56:03.688Z,249.39
2022-10-14T04:56:58.770Z,248.45
2022-10-14T04:57:54.949Z,250.54
2022-10-14T04:58:50.023Z,253.24
2022-10-14T04:59:44.988Z,257.62
2022-10-14T05:00:40.066Z,261.10
2022-10-14T05:01:35.222Z,262.15
2022-10-14T05:02:30.289Z,260.07
2022-10-14T05:03:25.398Z,258.23
2022-10-14T05:04:20.382Z,261.73
2022-10-14T05:05:15.477Z,260.69
2022-10-14T05:06:10.549Z,261.73
2022-10-14T05:07:05.938Z,261.52
2022-10-14T05:08:00.658Z,262.57
2022-10-14T05:08:55.748Z,261.73
2022-10-14T05:09:55.469Z,264.47
2022-10-14T05:10:46.986Z,264.90
2022-10-14T05:11:41.054Z,267.05
2022-10-14T05:12:36.055Z,268.36
2022-10-14T05:13:31.137Z,265.76
2022-10-14T05:14:26.253Z,264.05
2022-10-14T05:15:21.315Z,263.41
2022-10-14T05:16:16.403Z,262.36
2022-10-14T05:17:11.574Z,260.69
2022-10-14T05:18:06.533Z,262.78
2022-10-14T05:19:01.631Z,261.94
2022-10-14T05:19:56.643Z,259.04
2022-10-14T05:20:51.642Z,260.27
2022-10-14T05:21:46.668Z,262.57
2022-10-14T05:22:41.889Z,263.20
2022-10-14T05:23:37.175Z,266.40
2022-10-14T05:24:32.473Z,266.40
2022-10-14T05:25:27.740Z,261.94
2022-10-14T05:26:23.032Z,263.62
2022-10-14T05:27:18.358Z,264.26
2022-10-14T05:28:13.821Z,265.76
2022-10-14T05:29:09.138Z,262.99
2022-10-14T05:30:04.364Z,265.76
2022-10-14T05:30:59.622Z,264.47
2022-10-14T05:31:54.948Z,261.31
2022-10-14T05:32:50.259Z,258.63
2022-10-14T05:33:45.792Z,259.04
2022-10-14T05:34:40.859Z,255.01
2022-10-14T05:35:57.592Z,239.21
2022-10-14T05:36:32.577Z,237.65
2022-10-14T05:37:26.667Z,239.21
2022-10-14T05:38:21.709Z,248.64
2022-10-14T05:39:17.072Z,255.01
2022-10-14T05:40:15.264Z,256.41
2022-10-14T05:41:10.643Z,258.23
2022-10-14T05:42:06.085Z,258.02
2022-10-14T05:43:01.468Z,257.01
2022-10-14T05:43:56.853Z,258.23
2022-10-14T05:44:52.298Z,261.10
2022-10-14T05:45:47.681Z,261.73
2022-10-14T05:46:43.222Z,263.83
2022-10-14T05:47:38.493Z,251.11
2022-10-14T05:48:33.891Z,240.97
2022-10-14T05:49:29.311Z,240.44
2022-10-14T05:50:24.340Z,235.27
2022-10-14T05:51:19.315Z,224.02
2022-10-14T05:52:14.464Z,213.11
2022-10-14T05:53:09.461Z,212.28
2022-10-14T05:54:04.461Z,216.20
2022-10-14T05:54:59.490Z,220.26
2022-10-14T05:55:54.493Z,224.64
2022-10-14T05:56:49.631Z,227.91
2022-10-14T05:57:44.755Z,229.83
2022-10-14T05:58:39.871Z,232.76
2022-10-14T05:59:34.894Z,233.76
2022-10-14T06:00:29.980Z,238.00
2022-10-14T06:01:24.979Z,240.09
2022-10-14T06:02:20.447Z,245.66
2022-10-14T06:03:17.690Z,243.83
2022-10-14T06:04:12.912Z,245.66
2022-10-14T06:05:08.302Z,247.14
2022-10-14T06:06:03.739Z,224.79
2022-10-14T06:06:59.262Z,151.98
2022-10-14T06:07:54.618Z,115.56
2022-10-14T06:08:50.116Z,99.99
2022-10-14T06:09:45.485Z,84.17
2022-10-14T06:10:40.861Z,79.82
2022-10-14T06:11:35.966Z,73.30
2022-10-14T06:12:31.098Z,62.63
2022-10-14T06:13:26.184Z,53.89
2022-10-14T06:14:21.223Z,49.66
2022-10-14T06:15:16.303Z,48.93
2022-10-14T06:16:11.307Z,52.67
2022-10-14T06:17:06.405Z,57.45
2022-10-14T06:18:01.475Z,63.63
2022-10-14T06:18:56.481Z,70.04
2022-10-14T06:19:51.466Z,76.25
2022-10-14T06:20:46.464Z,81.30
2022-10-14T06:21:41.561Z,86.79
2022-10-14T06:22:36.673Z,91.66
2022-10-14T06:23:31.792Z,94.12
2022-10-14T06:24:27.181Z,99.09
2022-10-14T06:25:22.332Z,102.82
2022-10-14T06:26:17.696Z,107.04
2022-10-14T06:27:13.121Z,109.79
2022-10-14T06:28:08.585Z,114.06
2022-10-14T06:29:04.631Z,118.18
2022-10-14T06:29:59.669Z,123.15
2022-10-14T06:30:55.138Z,127.78
2022-10-14T06:31:50.583Z,132.97
2022-10-14T06:32:46.031Z,136.78
2022-10-14T06:33:41.488Z,140.94
2022-10-14T06:34:37.088Z,144.86
2022-10-14T06:35:31.989Z,145.24
2022-10-14T06:36:27.069Z,149.53
2022-10-14T06:37:22.115Z,153.38
2022-10-14T06:38:17.325Z,157.43
2022-10-14T06:39:12.456Z,161.54
2022-10-14T06:40:07.537Z,164.57
2022-10-14T06:41:02.666Z,169.24
2022-10-14T06:41:59.646Z,169.93
2022-10-14T06:42:54.700Z,173.83
2022-10-14T06:43:49.752Z,177.72
2022-10-14T06:44:44.814Z,178.67
2022-10-14T06:45:40.866Z,179.82
2022-10-14T06:46:36.260Z,183.58
2022-10-14T06:47:31.791Z,184.89
2022-10-14T06:48:27.274Z,186.45
2022-10-14T06:49:22.766Z,186.36
2022-10-14T06:50:18.128Z,187.53
2022-10-14T06:51:13.492Z,188.94
2022-10-14T06:52:09.039Z,189.26
2022-10-14T06:53:04.402Z,188.72
2022-10-14T06:53:59.888Z,189.04
2022-10-14T06:54:55.401Z,180.60
2022-10-14T06:55:51.000Z,179.82
2022-10-14T06:56:46.491Z,182.58
2022-10-14T06:57:41.912Z,183.38
2022-10-14T06:58:36.980Z,182.18
2022-10-14T06:59:32.075Z,182.58
2022-10-14T07:00:27.190Z,186.04
2022-10-14T07:01:22.470Z,187.43
2022-10-14T07:02:17.538Z,191.36
2022-10-14T07:03:12.683Z,193.96
2022-10-14T07:05:36.177Z,173.29
2022-10-14T07:06:31.439Z,176.77
2022-10-14T07:07:26.802Z,184.60
2022-10-14T07:08:22.327Z,189.48
2022-10-14T07:09:17.811Z,193.62
2022-10-14T07:10:13.317Z,194.19
2022-10-14T07:11:08.856Z,197.82
2022-10-14T07:12:04.349Z,198.66
2022-10-14T07:12:59.830Z,195.35
2022-10-14T07:13:55.331Z,193.62
2022-10-14T07:14:50.696Z,195.35
2022-10-14T07:15:46.164Z,193.62
2022-10-14T07:16:41.848Z,195.35
2022-10-14T07:17:37.335Z,196.40
2022-10-14T07:18:32.873Z,198.66
2022-10-14T07:19:28.496Z,196.99
2022-10-14T07:20:24.041Z,199.26
2022-10-14T07:21:19.481Z,197.23
2022-10-14T07:22:15.122Z,196.16
2022-10-14T07:23:10.593Z,197.35
2022-10-14T07:24:06.081Z,192.71
2022-10-14T07:25:01.733Z,190.91
2022-10-14T07:25:57.211Z,189.15
2022-10-14T07:26:52.703Z,190.58
2022-10-14T07:27:48.339Z,193.16
2022-10-14T07:28:43.866Z,196.52
2022-10-14T07:29:39.374Z,198.78
2022-10-14T07:30:34.872Z,198.78
2022-10-14T07:31:30.387Z,204.10
2022-10-14T07:32:25.865Z,204.73
2022-10-14T07:33:21.498Z,205.50
2022-10-14T07:34:16.849Z,205.89
2022-10-14T07:35:12.317Z,209.04
2022-10-14T07:36:08.188Z,207.85
2022-10-14T07:37:03.394Z,211.60
2022-10-14T07:37:58.876Z,208.11
2022-10-14T07:38:54.385Z,209.71
2022-10-14T07:39:49.872Z,209.97
2022-10-14T07:40:45.634Z,205.50
2022-10-14T07:41:40.856Z,198.90
2022-10-14T07:42:36.339Z,195.58
2022-10-14T07:43:31.867Z,196.40
2022-10-14T07:44:27.553Z,199.51
2022-10-14T07:45:22.699Z,200.73
2022-10-14T07:46:18.344Z,192.82
2022-10-14T07:47:13.823Z,190.47
2022-10-14T07:48:09.206Z,183.38
2022-10-14T07:49:04.722Z,183.58
2022-10-14T07:50:00.208Z,185.83
2022-10-14T07:50:55.723Z,186.26
2022-10-14T07:51:51.093Z,188.07
2022-10-14T07:52:46.591Z,189.81
2022-10-14T07:53:42.081Z,192.71
2022-10-14T07:54:37.583Z,197.46
2022-10-14T07:55:33.218Z,200.73
2022-10-14T07:56:28.689Z,204.22
2022-10-14T07:57:24.783Z,206.15
2022-10-14T07:58:19.720Z,207.58
2022-10-14T07:59:15.213Z,209.04
2022-10-14T08:00:10.852Z,208.51
2022-10-14T08:01:06.484Z,210.24
2022-10-14T08:02:01.928Z,210.24
2022-10-14T08:02:57.312Z,210.78
2022-10-14T08:03:52.693Z,208.77
2022-10-14T08:04:48.208Z,211.19
2022-10-14T08:05:43.631Z,211.05
2022-10-14T08:06:39.147Z,207.85
2022-10-14T08:07:34.653Z,212.56
2022-10-14T08:08:30.042Z,209.97
2022-10-14T08:10:21.064Z,212.83
2022-10-14T08:11:16.592Z,209.84
2022-10-14T08:12:12.199Z,209.71
2022-10-14T08:13:07.699Z,203.84
2022-10-14T08:14:03.211Z,199.51
2022-10-14T08:14:58.840Z,196.16
2022-10-14T08:15:54.344Z,191.92
2022-10-14T08:16:49.853Z,190.36
2022-10-14T08:17:45.491Z,190.47
2022-10-14T08:18:40.884Z,188.83
2022-10-14T08:19:36.355Z,188.07
2022-10-14T08:20:31.837Z,189.81
2022-10-14T08:21:27.247Z,189.81
2022-10-14T08:22:23.045Z,191.14
2022-10-14T08:23:19.893Z,191.58
2022-10-14T08:24:13.692Z,191.25
2022-10-14T08:25:09.213Z,188.94
2022-10-14T08:26:04.980Z,185.73
2022-10-14T08:27:00.093Z,189.04
2022-10-14T08:27:55.625Z,191.47
2022-10-14T08:28:51.094Z,190.47
2022-10-14T08:29:46.531Z,194.65
2022-10-14T08:30:41.967Z,196.87
2022-10-14T08:31:37.520Z,195.46
2022-10-14T08:32:32.945Z,196.16
2022-10-14T08:33:28.526Z,200.36
2022-10-14T08:34:23.804Z,202.46
2022-10-14T08:35:19.301Z,204.86
2022-10-14T08:36:14.845Z,204.99
2022-10-14T08:37:10.212Z,204.10
2022-10-14T08:38:05.758Z,200.97
2022-10-14T08:39:01.250Z,201.59
2022-10-14T08:39:56.765Z,200.11
2022-10-14T08:40:55.614Z,201.46
2022-10-14T08:41:47.758Z,203.34
2022-10-14T08:42:43.254Z,203.09
2022-10-14T08:43:38.737Z,201.96
2022-10-14T08:44:34.407Z,198.42
2022-10-14T08:45:29.919Z,194.31
2022-10-14T08:46:25.390Z,188.94
2022-10-14T08:47:20.842Z,186.89
2022-10-14T08:48:16.456Z,187.00
2022-10-14T08:49:11.948Z,188.50
2022-10-14T08:50:07.501Z,186.47
2022-10-14T08:51:02.955Z,186.26
2022-10-14T08:51:58.463Z,186.57
2022-10-14T08:52:53.968Z,185.62
2022-10-14T08:53:49.408Z,184.39
2022-10-14T08:54:44.920Z,185.20
2022-10-14T08:55:40.591Z,187.64
2022-10-14T08:56:36.107Z,188.39
2022-10-14T08:57:31.602Z,190.25
2022-10-14T08:58:27.155Z,192.82
2022-10-14T08:59:22.633Z,191.58
2022-10-14T09:00:17.847Z,190.80
2022-10-14T09:01:13.574Z,188.94
2022-10-14T09:02:08.804Z,186.57
2022-10-14T09:03:04.454Z,186.68
2022-10-14T09:03:59.903Z,181.58
2022-10-14T09:04:55.389Z,176.77
2022-10-14T09:05:50.938Z,173.47
2022-10-14T09:06:46.428Z,174.01
2022-10-14T09:07:41.953Z,183.58
2022-10-14T09:08:37.590Z,187.21
2022-10-14T09:09:33.160Z,190.91
2022-10-14T09:10:28.643Z,192.15
2022-10-14T09:11:24.135Z,194.77
2022-10-14T09:12:19.751Z,198.06
2022-10-14T09:13:14.984Z,201.09
2022-10-14T09:14:10.478Z,202.96
2022-10-14T09:15:05.959Z,205.37
2022-10-14T09:16:01.567Z,200.97
2022-10-14T09:16:57.058Z,201.84
2022-10-14T09:17:52.590Z,204.10
2022-10-14T09:18:50.918Z,205.12
2022-10-14T09:19:44.856Z,208.64
2022-10-14T09:20:39.195Z,211.19
2022-10-14T09:21:51.726Z,212.28
2022-10-14T09:22:31.051Z,211.19
2022-10-14T09:23:25.537Z,209.30
2022-10-14T09:24:21.177Z,208.37
2022-10-14T09:25:16.599Z,205.89
2022-10-14T09:26:12.116Z,201.09
2022-10-14T09:27:07.576Z,198.18
2022-10-14T09:28:02.968Z,201.71
2022-10-14T09:28:58.468Z,202.96
2022-10-14T09:29:54.241Z,202.71
2022-10-14T09:30:49.571Z,205.24
2022-10-14T09:31:44.962Z,208.64
2022-10-14T09:32:40.476Z,208.24
2022-10-14T09:33:38.304Z,206.41
2022-10-14T09:34:32.468Z,205.89
2022-10-14T09:35:26.892Z,205.63
2022-10-14T09:36:22.511Z,207.19
2022-10-14T09:37:17.982Z,212.01
2022-10-14T09:38:13.346Z,213.80
2022-10-14T09:39:08.807Z,211.60
2022-10-14T09:40:04.187Z,208.51
2022-10-14T09:40:59.831Z,207.32
2022-10-14T09:41:55.168Z,207.71
2022-10-14T09:42:50.804Z,206.28
2022-10-14T09:43:46.078Z,202.84
2022-10-14T09:44:41.464Z,197.70
2022-10-14T09:45:36.936Z,191.25
2022-10-14T09:46:32.414Z,188.50
2022-10-14T09:47:27.888Z,187.85
2022-10-14T09:48:23.417Z,190.25
2022-10-14T09:49:19.027Z,192.71
2022-10-14T09:50:14.419Z,190.25
2022-10-14T09:51:09.945Z,184.89
2022-10-14T09:52:05.565Z,181.39
2022-10-14T09:53:01.072Z,177.15
2022-10-14T09:53:56.650Z,177.15
2022-10-14T09:54:52.177Z,177.34
2022-10-14T09:55:47.692Z,179.05
2022-10-14T09:56:43.235Z,176.40
2022-10-14T09:57:38.829Z,174.19
2022-10-14T09:58:34.531Z,181.39
2022-10-14T09:59:29.775Z,185.10
2022-10-14T10:00:25.394Z,189.37
2022-10-14T10:01:20.881Z,186.04
2022-10-14T10:02:16.400Z,186.79
2022-10-14T10:03:16.954Z,184.89
2022-10-14T10:04:08.519Z,184.99
2022-10-14T10:05:03.196Z,187.85
2022-10-14T10:05:58.700Z,190.03
2022-10-14T10:06:54.051Z,191.36
2022-10-14T10:07:49.534Z,189.81
2022-10-14T10:08:45.002Z,190.91
2022-10-14T10:09:40.544Z,188.18
2022-10-14T10:10:36.179Z,188.39
2022-10-14T10:11:31.591Z,194.42
2022-10-14T10:12:27.104Z,195.46
2022-10-14T10:13:22.641Z,198.18
2022-10-14T10:14:18.087Z,199.14
2022-10-14T10:15:13.707Z,200.97
2022-10-14T10:16:09.062Z,201.96
2022-10-14T10:17:04.541Z,200.97
2022-10-14T10:18:00.123Z,198.78
2022-10-14T10:18:55.490Z,194.88
2022-10-14T10:19:50.964Z,195.93
2022-10-14T10:20:46.429Z,201.34
2022-10-14T10:21:41.913Z,201.96
2022-10-14T10:22:37.416Z,204.99
2022-10-14T10:23:32.920Z,203.84
2022-10-14T10:24:30.865Z,202.33
2022-10-14T10:25:23.916Z,203.72
2022-10-14T10:26:19.429Z,203.97
2022-10-14T10:27:15.017Z,202.96
2022-10-14T10:28:10.355Z,205.37
2022-10-14T10:29:05.976Z,204.35
2022-10-14T10:30:01.595Z,207.85
2022-10-14T10:30:56.917Z,211.05
2022-10-14T10:31:52.413Z,216.49
2022-10-14T10:32:48.042Z,215.77
2022-10-14T10:33:43.526Z,214.64
2022-10-14T10:34:39.040Z,213.39
2022-10-14T10:35:34.512Z,212.28
2022-10-14T10:36:29.985Z,213.53
2022-10-14T10:37:25.658Z,216.91
2022-10-14T10:38:21.777Z,217.49
2022-10-14T10:39:16.603Z,217.78
2022-10-14T10:40:12.073Z,215.77
2022-10-14T10:41:07.674Z,213.80
2022-10-14T10:42:03.155Z,206.41
2022-10-14T10:42:58.673Z,201.34
2022-10-14T10:43:54.155Z,202.09
2022-10-14T10:44:49.706Z,202.71
2022-10-14T10:45:44.966Z,200.48
2022-10-14T10:46:40.619Z,203.59
2022-10-14T10:47:35.955Z,203.97
2022-10-14T10:48:31.537Z,195.46
2022-10-14T10:49:27.063Z,194.19
2022-10-14T10:50:22.590Z,192.71
2022-10-14T10:51:17.922Z,185.21
2022-10-14T10:52:16.178Z,186.57
2022-10-14T10:53:09.923Z,195.12
2022-10-14T10:54:04.499Z,207.06
2022-10-14T10:54:59.873Z,214.79
2022-10-14T10:55:55.367Z,216.77
2022-10-14T10:56:50.833Z,214.08
2022-10-14T10:57:46.362Z,217.06
2022-10-14T10:58:41.976Z,223.87
2022-10-14T10:59:37.526Z,226.81
2022-10-14T11:00:33.139Z,227.76
2022-10-14T11:01:28.676Z,225.72
2022-10-14T11:02:24.148Z,219.09
2022-10-14T11:03:19.528Z,207.06
2022-10-14T11:04:14.810Z,200.85
2022-10-14T11:05:10.226Z,199.38
2022-10-14T11:06:05.628Z,189.26
2022-10-14T11:07:01.242Z,173.47
2022-10-14T11:07:56.627Z,168.90
2022-10-14T11:08:52.151Z,168.39
2022-10-14T11:09:47.691Z,160.92
2022-10-14T11:10:43.194Z,152.12
2022-10-14T11:11:38.679Z,142.02
2022-10-14T11:12:34.277Z,133.50
2022-10-14T11:13:32.361Z,130.37
2022-10-14T11:14:25.331Z,133.93
2022-10-14T11:15:20.962Z,140.11
2022-10-14T11:16:16.452Z,146.90
2022-10-14T11:17:11.927Z,152.40
2022-10-14T11:18:07.443Z,159.99
2022-10-14T11:19:03.054Z,167.21
2022-10-14T11:19:58.167Z,173.83
2022-10-14T11:20:53.153Z,180.21
2022-10-14T11:21:48.264Z,183.99
2022-10-14T11:22:43.376Z,184.99
2022-10-14T11:23:38.390Z,189.26
2022-10-14T11:24:33.477Z,188.07
2022-10-14T11:25:28.762Z,186.24
2022-10-14T11:26:23.851Z,180.80
2022-10-14T11:27:22.323Z,185.42
2022-10-14T11:28:14.866Z,185.62
2022-10-14T11:29:08.963Z,188.18
2022-10-14T11:30:04.047Z,185.42
2022-10-14T11:30:59.143Z,187.43
2022-10-14T11:31:54.628Z,190.47
2022-10-14T11:32:49.957Z,185.62
2022-10-14T11:33:45.676Z,187.85
2022-10-14T11:34:41.146Z,193.62